createdAt,value
2022-11-12T00:01:08.046Z,101918.09
2022-11-12T00:03:36.413Z,101925.94
2022-11-12T00:06:04.720Z,101920.06
2022-11-12T00:08:31.953Z,101919.25
2022-11-12T00:10:58.356Z,101918.47
2022-11-12T00:13:27.502Z,101926.94
2022-11-12T00:15:54.731Z,101923.00
2022-11-12T00:18:21.958Z,101930.16
2022-11-12T00:20:48.415Z,101930.16
2022-11-12T00:23:14.800Z,101930.22
2022-11-12T00:25:41.266Z,101935.78
2022-11-12T00:28:07.662Z,101938.19
2022-11-12T00:30:34.017Z,101929.09
2022-11-12T00:33:00.345Z,101929.47
2022-11-12T00:35:26.671Z,101928.69
2022-11-12T00:37:53.104Z,101937.03
2022-11-12T00:40:20.303Z,101932.63
2022-11-12T00:42:46.632Z,101934.63
2022-11-12T00:45:12.977Z,101929.84
2022-11-12T00:47:39.304Z,101934.63
2022-11-12T00:50:05.732Z,101923.91
2022-11-12T00:52:32.069Z,101932.63
2022-11-12T00:54:58.410Z,101927.44
2022-11-12T00:57:24.801Z,101926.63
2022-11-12T00:59:51.131Z,101917.91
2022-11-12T01:02:17.471Z,101920.63
2022-11-12T01:04:43.812Z,101926.19
2022-11-12T01:07:11.086Z,101921.06
2022-11-12T01:09:37.423Z,101921.00
2022-11-12T01:12:03.757Z,101913.44
2022-11-12T01:14:30.109Z,101914.25
2022-11-12T01:16:56.443Z,101915.81
2022-11-12T01:19:22.788Z,101911.03
2022-11-12T01:21:49.096Z,101916.53
2022-11-12T01:24:15.432Z,101912.22
2022-11-12T01:26:41.774Z,101907.44
2022-11-12T01:29:08.163Z,101905.88
2022-11-12T01:31:34.511Z,101916.66
2022-11-12T01:34:00.844Z,101919.44
2022-11-12T01:36:27.200Z,101921.06
2022-11-12T01:38:53.545Z,101916.66
2022-11-12T01:41:20.761Z,101919.44
2022-11-12T01:43:47.175Z,101921.06
2022-11-12T01:46:13.543Z,101925.78
2022-11-12T01:48:39.884Z,101926.56
2022-11-12T01:51:06.229Z,101929.78
2022-11-12T01:53:32.565Z,101926.63
2022-11-12T01:55:58.900Z,101925.00
2022-11-12T01:58:25.647Z,101927.78
2022-11-12T02:00:52.239Z,101923.84
2022-11-12T02:03:18.663Z,101926.63
2022-11-12T02:05:44.998Z,101926.63
2022-11-12T02:08:12.205Z,101927.44
2022-11-12T02:10:38.540Z,101923.84
2022-11-12T02:13:04.883Z,101927.78
2022-11-12T02:15:31.225Z,101927.44
2022-11-12T02:17:57.540Z,101916.72
2022-11-12T02:20:23.880Z,101916.28
2022-11-12T02:22:50.206Z,101915.13
2022-11-12T02:25:17.488Z,101917.91
2022-11-12T02:27:43.804Z,101925.84
2022-11-12T02:30:10.993Z,101922.69
2022-11-12T02:32:37.332Z,101922.69
2022-11-12T02:35:03.695Z,101927.06
2022-11-12T02:37:30.055Z,101926.25
2022-11-12T02:39:56.397Z,101922.28
2022-11-12T02:42:22.812Z,101930.63
2022-11-12T02:44:49.146Z,101925.91
2022-11-12T02:47:15.489Z,101925.91
2022-11-12T02:49:41.840Z,101929.47
2022-11-12T02:52:08.189Z,101934.63
2022-11-12T02:54:34.541Z,101929.84
2022-11-12T02:57:00.870Z,101929.03
2022-11-12T02:59:27.319Z,101931.84
2022-11-12T03:01:53.635Z,101931.09
2022-11-12T03:04:20.818Z,101926.31
2022-11-12T03:06:47.175Z,101936.22
2022-11-12T03:09:13.540Z,101930.69
2022-11-12T03:11:39.869Z,101931.53
2022-11-12T03:14:06.200Z,101938.25
2022-11-12T03:16:32.574Z,101942.59
2022-11-12T03:18:58.901Z,101947.41
2022-11-12T03:21:25.242Z,101941.03
2022-11-12T03:23:51.582Z,101943.47
2022-11-12T03:26:17.920Z,101951.03
2022-11-12T03:28:44.290Z,101955.75
2022-11-12T03:31:10.606Z,101952.19
2022-11-12T03:33:36.940Z,101956.59
2022-11-12T03:36:03.273Z,101950.66
2022-11-12T03:38:29.794Z,101949.81
2022-11-12T03:40:56.373Z,101957.38
2022-11-12T03:43:22.713Z,101958.19
2022-11-12T03:45:49.048Z,101953.81
2022-11-12T03:48:15.381Z,101953.44
2022-11-12T03:50:41.687Z,101948.28
2022-11-12T03:53:08.898Z,101950.28
2022-11-12T03:55:35.286Z,101955.03
2022-11-12T03:58:01.595Z,101952.59
2022-11-12T04:00:27.933Z,101949.03
2022-11-12T04:02:54.265Z,101949.81
2022-11-12T04:05:20.559Z,101943.88
2022-11-12T04:07:46.989Z,101942.66
2022-11-12T04:10:13.313Z,101937.88
2022-11-12T04:12:39.681Z,101947.09
2022-11-12T04:15:06.029Z,101943.50
2022-11-12T04:17:33.234Z,101946.66
2022-11-12T04:19:59.584Z,101944.25
2022-11-12T04:22:25.906Z,101947.03
2022-11-12T04:24:52.286Z,101941.47
2022-11-12T04:27:18.611Z,101943.47
2022-11-12T04:29:44.981Z,101945.06
2022-11-12T04:32:11.307Z,101944.25
2022-11-12T04:34:37.665Z,101943.47
2022-11-12T04:37:04.045Z,101946.25
2022-11-12T04:39:30.396Z,101938.31
2022-11-12T04:41:56.774Z,101939.94
2022-11-12T04:44:23.113Z,101931.56
2022-11-12T04:46:49.440Z,101928.00
2022-11-12T04:49:15.764Z,101939.50
2022-11-12T04:51:42.113Z,101926.31
2022-11-12T04:54:09.322Z,101934.72
2022-11-12T04:56:35.656Z,101931.94
2022-11-12T04:59:02.038Z,101927.16
2022-11-12T05:01:28.385Z,101938.31
2022-11-12T05:03:54.739Z,101934.72
2022-11-12T05:06:21.082Z,101933.94
2022-11-12T05:08:47.403Z,101929.16
2022-11-12T05:11:13.722Z,101935.09
2022-11-12T05:13:40.206Z,101941.09
2022-11-12T05:16:06.538Z,101951.50
2022-11-12T05:18:33.730Z,101944.38
2022-11-12T05:21:00.157Z,101939.19
2022-11-12T05:23:26.506Z,101939.56
2022-11-12T05:25:53.722Z,101942.34
2022-11-12T05:28:21.974Z,101949.88
2022-11-12T05:30:48.348Z,101951.50
2022-11-12T05:33:14.726Z,101953.13
2022-11-12T05:35:41.121Z,101952.28
2022-11-12T05:38:10.384Z,101963.44
2022-11-12T05:40:36.792Z,101957.06
2022-11-12T05:43:05.961Z,101966.59
2022-11-12T05:45:32.416Z,101967.41
2022-11-12T05:47:58.834Z,101970.63
2022-11-12T05:50:28.245Z,101966.59
2022-11-12T05:53:04.355Z,101969.38
2022-11-12T05:55:36.809Z,101974.56
2022-11-12T05:58:05.405Z,101973.00
2022-11-12T06:00:32.721Z,101980.50
2022-11-12T06:02:59.243Z,101976.94
2022-11-12T06:05:26.532Z,101977.31
2022-11-12T06:07:52.917Z,101972.94
2022-11-12T06:10:21.200Z,101978.50
2022-11-12T06:12:47.650Z,101972.47
2022-11-12T06:15:14.147Z,101976.13
2022-11-12T06:17:40.605Z,101980.09
2022-11-12T06:20:08.908Z,101990.81
2022-11-12T06:22:35.360Z,101991.16
2022-11-12T06:25:03.715Z,101986.50
2022-11-12T06:27:30.951Z,101985.72
2022-11-12T06:29:57.414Z,101986.50
2022-11-12T06:32:24.664Z,101990.88
2022-11-12T06:34:51.152Z,101993.72
2022-11-12T06:37:18.398Z,101992.13
2022-11-12T06:39:44.874Z,101991.28
2022-11-12T06:42:12.178Z,101986.53
2022-11-12T06:44:39.692Z,101999.22
2022-11-12T06:47:07.036Z,101997.63
2022-11-12T06:49:33.510Z,102004.41
2022-11-12T06:52:00.756Z,102005.59
2022-11-12T06:54:29.435Z,101996.81
2022-11-12T06:56:56.772Z,101997.63
2022-11-12T06:59:23.515Z,102007.16
2022-11-12T07:01:50.159Z,102018.72
2022-11-12T07:04:17.855Z,102013.16
2022-11-12T07:06:44.556Z,102017.97
2022-11-12T07:09:11.300Z,102023.13
2022-11-12T07:11:37.732Z,102019.91
2022-11-12T07:14:04.979Z,102017.13
2022-11-12T07:16:32.367Z,102022.53
2022-11-12T07:18:58.800Z,102025.06
2022-11-12T07:21:26.283Z,102026.53
2022-11-12T07:23:52.736Z,102032.03
2022-11-12T07:26:20.081Z,102019.63
2022-11-12T07:28:47.498Z,102028.66
2022-11-12T07:31:13.965Z,102025.44
2022-11-12T07:33:40.404Z,102027.78
2022-11-12T07:36:06.873Z,102026.03
2022-11-12T07:38:33.340Z,102034.09
2022-11-12T07:41:00.751Z,102034.44
2022-11-12T07:43:28.168Z,102037.22
2022-11-12T07:45:55.536Z,102033.22
2022-11-12T07:48:23.068Z,102039.88
2022-11-12T07:50:49.600Z,102023.59
2022-11-12T07:53:16.059Z,102031.53
2022-11-12T07:55:42.535Z,102030.25
2022-11-12T07:58:08.974Z,102030.09
2022-11-12T08:00:36.447Z,102031.13
2022-11-12T08:03:02.905Z,102035.16
2022-11-12T08:05:29.425Z,102028.38
2022-11-12T08:07:55.978Z,102026.75
2022-11-12T08:10:22.506Z,102033.75
2022-11-12T08:12:48.959Z,102031.50
2022-11-12T08:15:15.430Z,102025.13
2022-11-12T08:17:42.002Z,102033.44
2022-11-12T08:20:08.480Z,102031.44
2022-11-12T08:22:35.854Z,102038.59
2022-11-12T08:25:02.336Z,102039.22
2022-11-12T08:27:28.784Z,102034.94
2022-11-12T08:29:55.262Z,102034.22
2022-11-12T08:32:22.661Z,102042.50
2022-11-12T08:34:50.121Z,102043.31
2022-11-12T08:37:17.492Z,102047.13
2022-11-12T08:39:44.850Z,102044.34
2022-11-12T08:42:11.317Z,102048.06
2022-11-12T08:44:38.644Z,102048.50
2022-11-12T08:47:05.105Z,102040.59
2022-11-12T08:49:31.622Z,102048.97
2022-11-12T08:51:58.982Z,102061.69
2022-11-12T08:54:25.414Z,102052.53
2022-11-12T08:56:51.965Z,102052.91
2022-11-12T08:59:19.354Z,102051.34
2022-11-12T09:01:45.876Z,102052.97
2022-11-12T09:04:13.261Z,102063.75
2022-11-12T09:06:39.776Z,102062.56
2022-11-12T09:09:06.272Z,102070.91
2022-11-12T09:11:32.720Z,102065.72
2022-11-12T09:13:59.222Z,102073.31
2022-11-12T09:16:26.621Z,102068.59
2022-11-12T09:18:54.065Z,102072.97
2022-11-12T09:21:21.456Z,102071.38
2022-11-12T09:23:47.893Z,102073.25
2022-11-12T09:26:15.252Z,102075.97
2022-11-12T09:28:41.725Z,102070.41
2022-11-12T09:31:08.216Z,102073.63
2022-11-12T09:33:34.667Z,102071.66
2022-11-12T09:36:01.333Z,102073.25
2022-11-12T09:38:28.167Z,102075.31
2022-11-12T09:40:55.034Z,102076.88
2022-11-12T09:43:22.437Z,102075.31
2022-11-12T09:46:06.497Z,102066.91
2022-11-12T09:48:35.372Z,102073.47
2022-11-12T09:51:02.758Z,102076.78
2022-11-12T09:53:29.316Z,102081.97
2022-11-12T09:55:56.677Z,102083.09
2022-11-12T09:58:23.305Z,102075.31
2022-11-12T10:00:49.929Z,102076.53
2022-11-12T10:03:17.343Z,102084.03
2022-11-12T10:05:44.738Z,102079.75
2022-11-12T10:08:12.122Z,102080.59
2022-11-12T10:10:39.546Z,102083.38
2022-11-12T10:13:05.999Z,102073.25
2022-11-12T10:15:32.457Z,102073.53
2022-11-12T10:17:59.881Z,102072.09
2022-11-12T10:20:27.294Z,102078.00
2022-11-12T10:22:53.809Z,102082.50
2022-11-12T10:25:21.211Z,102082.66
2022-11-12T10:27:47.682Z,102089.91
2022-11-12T10:30:15.086Z,102094.13
2022-11-12T10:32:41.544Z,102094.03
2022-11-12T10:35:08.038Z,102095.56
2022-11-12T10:37:34.517Z,102089.28
2022-11-12T10:40:00.989Z,102098.72
2022-11-12T10:42:27.469Z,102097.63
2022-11-12T10:44:54.927Z,102089.56
2022-11-12T10:47:22.328Z,102097.81
2022-11-12T10:49:49.721Z,102098.78
2022-11-12T10:52:16.182Z,102096.75
2022-11-12T10:54:42.688Z,102090.66
2022-11-12T10:57:09.237Z,102099.50
2022-11-12T10:59:35.691Z,102091.72
2022-11-12T11:02:02.170Z,102081.03
2022-11-12T11:04:28.712Z,102084.69
2022-11-12T11:06:56.134Z,102094.94
2022-11-12T11:09:22.611Z,102085.00
2022-11-12T11:11:49.096Z,102096.22
2022-11-12T11:14:16.491Z,102100.22
2022-11-12T11:16:43.947Z,102083.91
2022-11-12T11:19:10.397Z,102093.59
2022-11-12T11:21:41.786Z,102090.19
2022-11-12T11:24:08.948Z,102088.63
2022-11-12T11:26:36.366Z,102089.44
2022-11-12T11:29:02.798Z,102082.63
2022-11-12T11:31:30.179Z,102082.19
2022-11-12T11:33:57.581Z,102084.25
2022-11-12T11:36:24.903Z,102087.47
2022-11-12T11:38:51.324Z,102093.47
2022-11-12T11:41:18.700Z,102087.47
2022-11-12T11:43:45.253Z,102100.75
2022-11-12T11:46:11.719Z,102103.25
2022-11-12T11:48:39.007Z,102097.69
2022-11-12T11:51:06.426Z,102098.31
2022-11-12T11:53:32.851Z,102103.81
2022-11-12T11:55:59.307Z,102106.13
2022-11-12T11:58:27.102Z,102098.88
2022-11-12T12:00:53.682Z,102094.47
2022-11-12T12:03:21.086Z,102090.09
2022-11-12T12:05:47.621Z,102090.53
2022-11-12T12:08:14.986Z,102091.16
2022-11-12T12:11:01.720Z,102084.38
2022-11-12T12:13:28.822Z,102089.47
2022-11-12T12:15:56.211Z,102089.47
2022-11-12T12:18:23.699Z,102087.03
2022-11-12T12:20:50.247Z,102084.25
2022-11-12T12:23:17.615Z,102100.94
2022-11-12T12:25:44.979Z,102085.53
2022-11-12T12:28:12.353Z,102073.53
2022-11-12T12:30:39.805Z,102080.25
2022-11-12T12:33:07.158Z,102079.88
2022-11-12T12:35:33.626Z,102080.69
2022-11-12T12:38:00.062Z,102081.94
2022-11-12T12:40:27.752Z,102079.34
2022-11-12T12:42:54.227Z,102078.06
2022-11-12T12:45:21.593Z,102080.41
2022-11-12T12:47:48.198Z,102084.91
2022-11-12T12:50:15.607Z,102080.50
2022-11-12T12:52:43.010Z,102077.78
2022-11-12T12:55:10.426Z,102078.16
2022-11-12T12:57:37.794Z,102086.41
2022-11-12T13:00:04.296Z,102082.91
2022-11-12T13:02:31.685Z,102079.69
2022-11-12T13:04:58.212Z,102082.13
2022-11-12T13:07:24.696Z,102089.28
2022-11-12T13:09:51.467Z,102084.19
2022-11-12T13:12:18.840Z,102090.03
2022-11-12T13:14:45.256Z,102076.91
2022-11-12T13:17:11.748Z,102086.97
2022-11-12T13:19:39.101Z,102088.91
2022-11-12T13:22:05.577Z,102088.63
2022-11-12T13:24:32.031Z,102084.91
2022-11-12T13:26:59.353Z,102090.84
2022-11-12T13:29:27.717Z,102094.88
2022-11-12T13:31:54.189Z,102101.38
2022-11-12T13:34:21.419Z,102092.91
2022-11-12T13:36:48.666Z,102093.69
2022-11-12T13:39:15.091Z,102095.66
2022-11-12T13:41:42.405Z,102098.66
2022-11-12T13:44:09.171Z,102098.75
2022-11-12T13:46:36.396Z,102092.88
2022-11-12T13:49:02.885Z,102099.66
2022-11-12T13:51:30.127Z,102087.31
2022-11-12T13:53:56.657Z,102088.25
2022-11-12T13:56:24.981Z,102085.19
2022-11-12T13:58:53.261Z,102080.44
2022-11-12T14:01:19.747Z,102084.59
2022-11-12T14:03:46.988Z,102083.09
2022-11-12T14:06:15.438Z,102086.66
2022-11-12T14:08:41.855Z,102084.91
2022-11-12T14:11:09.117Z,102089.09
2022-11-12T14:13:37.440Z,102089.09
2022-11-12T14:16:03.974Z,102091.78
2022-11-12T14:18:30.442Z,102091.72
2022-11-12T14:20:58.766Z,102085.66
2022-11-12T14:23:25.987Z,102083.09
2022-11-12T14:25:52.570Z,102093.81
2022-11-12T14:28:18.982Z,102092.66
2022-11-12T14:30:47.338Z,102097.50
2022-11-12T14:33:13.800Z,102093.59
2022-11-12T14:35:41.023Z,102087.69
2022-11-12T14:38:09.847Z,102085.34
2022-11-12T14:40:37.124Z,102085.34
2022-11-12T14:43:04.399Z,102089.00
2022-11-12T14:45:35.185Z,102082.53
2022-11-12T14:48:02.858Z,102083.00
2022-11-12T14:50:30.140Z,102087.63
2022-11-12T14:52:56.569Z,102089.31
2022-11-12T14:55:23.847Z,102093.00
2022-11-12T14:57:51.110Z,102088.53
2022-11-12T15:00:17.676Z,102085.31
2022-11-12T15:02:55.777Z,102092.38
2022-11-12T15:05:26.836Z,102077.91
2022-11-12T15:07:53.302Z,102086.28
2022-11-12T15:10:19.733Z,102087.25
2022-11-12T15:12:47.053Z,102086.94
2022-11-12T15:15:14.386Z,102093.97
2022-11-12T15:17:40.832Z,102088.28
2022-11-12T15:20:08.374Z,102089.44
2022-11-12T15:22:34.858Z,102085.19
2022-11-12T15:25:01.334Z,102101.53
2022-11-12T15:27:28.735Z,102098.75
2022-11-12T15:29:56.106Z,102098.25
2022-11-12T15:32:22.531Z,102101.13
2022-11-12T15:34:49.881Z,102099.44
2022-11-12T15:37:17.509Z,102098.63
2022-11-12T15:39:44.934Z,102099.13
2022-11-12T15:42:12.307Z,102105.84
2022-11-12T15:44:39.705Z,102104.34
2022-11-12T15:47:06.176Z,102104.69
2022-11-12T15:49:33.551Z,102105.94
2022-11-12T15:52:00.922Z,102104.41
2022-11-12T15:54:27.421Z,102109.53
2022-11-12T15:56:54.797Z,102107.97
2022-11-12T15:59:22.172Z,102110.69
2022-11-12T16:01:49.573Z,102110.41
2022-11-12T16:04:16.330Z,102117.59
2022-11-12T16:06:42.879Z,102122.72
2022-11-12T16:09:10.259Z,102123.91
2022-11-12T16:11:37.672Z,102127.84
2022-11-12T16:14:05.066Z,102122.63
2022-11-12T16:18:58.856Z,102147.56
2022-11-12T16:21:26.230Z,102138.69
2022-11-12T16:23:52.670Z,102145.88
2022-11-12T16:26:20.061Z,102138.88
2022-11-12T16:28:46.546Z,102137.09
2022-11-12T16:31:12.972Z,102145.88
2022-11-12T16:33:40.473Z,102141.03
2022-11-12T16:36:07.890Z,102145.50
2022-11-12T16:38:34.320Z,102144.25
2022-11-12T16:41:00.847Z,102150.19
2022-11-12T16:43:28.496Z,102136.78
2022-11-12T16:45:55.131Z,102150.03
2022-11-12T16:48:21.592Z,102143.59
2022-11-12T16:50:48.045Z,102136.34
2022-11-12T16:53:14.491Z,102141.25
2022-11-12T16:55:41.881Z,102137.53
2022-11-12T16:58:08.467Z,102143.59
2022-11-12T17:03:02.265Z,102146.44
2022-11-12T17:05:29.654Z,102142.72
2022-11-12T17:07:56.113Z,102145.22
2022-11-12T17:12:49.091Z,102132.94
2022-11-12T17:15:16.448Z,102135.72
2022-11-12T17:17:42.885Z,102135.25
2022-11-12T17:20:10.279Z,102137.72
2022-11-12T17:22:37.631Z,102139.28
2022-11-12T17:25:05.035Z,102132.50
2022-11-12T17:27:31.457Z,102130.91
2022-11-12T17:29:57.919Z,102132.59
2022-11-12T17:32:25.316Z,102136.88
2022-11-12T17:34:51.723Z,102144.16
2022-11-12T17:37:19.088Z,102135.66
2022-11-12T17:39:46.455Z,102136.56
2022-11-12T17:42:13.843Z,102134.13
2022-11-12T17:44:41.231Z,102135.88
2022-11-12T17:47:09.915Z,102142.56
2022-11-12T17:49:36.387Z,102136.56
2022-11-12T17:52:03.755Z,102143.19
2022-11-12T17:54:31.096Z,102138.28
2022-11-12T17:56:58.454Z,102139.41
2022-11-12T17:59:25.815Z,102135.38
2022-11-12T18:01:52.255Z,102138.16
2022-11-12T18:04:20.821Z,102144.09
2022-11-12T18:06:49.893Z,102126.63
2022-11-12T18:09:16.371Z,102138.59
2022-11-12T18:11:43.730Z,102146.63
2022-11-12T18:14:10.374Z,102140.47
2022-11-12T18:16:36.832Z,102135.13
2022-11-12T18:19:04.212Z,102137.06
2022-11-12T18:21:31.618Z,102122.75
2022-11-12T18:23:58.984Z,102129.00
2022-11-12T18:26:26.381Z,102128.38
2022-11-12T18:28:53.759Z,102133.84
2022-11-12T18:31:20.210Z,102135.06
2022-11-12T18:33:47.610Z,102137.50
2022-11-12T18:36:14.230Z,102136.38
2022-11-12T18:38:40.637Z,102128.31
2022-11-12T18:41:08.012Z,102132.28
2022-11-12T18:43:34.511Z,102133.41
2022-11-12T18:46:00.946Z,102137.13
2022-11-12T18:48:27.403Z,102145.84
2022-11-12T18:50:54.828Z,102145.78
2022-11-12T18:53:22.330Z,102133.00
2022-11-12T18:55:48.753Z,102140.41
2022-11-12T18:58:15.198Z,102145.19
2022-11-12T19:00:41.717Z,102141.91
2022-11-12T19:03:08.161Z,102144.69
2022-11-12T19:05:34.617Z,102142.31
2022-11-12T19:08:01.073Z,102145.53
2022-11-12T19:10:27.554Z,102150.75
2022-11-12T19:12:53.993Z,102148.34
2022-11-12T19:15:26.460Z,102148.25
2022-11-12T19:17:53.521Z,102149.50
2022-11-12T19:20:20.866Z,102142.31
2022-11-12T19:22:47.306Z,102152.22
2022-11-12T19:25:13.755Z,102152.13
2022-11-12T19:27:41.121Z,102142.69
2022-11-12T19:30:07.565Z,102152.63
2022-11-12T19:32:34.898Z,102155.34
2022-11-12T19:35:01.341Z,102148.31
2022-11-12T19:37:33.444Z,102138.72
2022-11-12T19:40:01.379Z,102142.31
2022-11-12T19:42:28.799Z,102157.84
2022-11-12T19:44:55.262Z,102154.97
2022-11-12T19:47:22.616Z,102147.69
2022-11-12T19:49:50.088Z,102162.78
2022-11-12T19:52:17.478Z,102162.91
2022-11-12T19:54:44.851Z,102160.41
2022-11-12T19:57:11.271Z,102164.22
2022-11-12T19:59:37.882Z,102151.75
2022-11-12T20:02:04.351Z,102162.25
2022-11-12T20:04:31.728Z,102171.59
2022-11-12T20:06:59.122Z,102171.59
2022-11-12T20:09:26.535Z,102162.91
2022-11-12T20:11:52.999Z,102164.44
2022-11-12T20:14:19.440Z,102168.47
2022-11-12T20:16:46.090Z,102167.59
2022-11-12T20:19:13.465Z,102165.88
2022-11-12T20:21:39.941Z,102168.03
2022-11-12T20:24:06.666Z,102169.56
2022-11-12T20:26:34.045Z,102169.50
2022-11-12T20:29:00.500Z,102169.69
2022-11-12T20:31:26.964Z,102174.03
2022-11-12T20:33:53.464Z,102165.59
2022-11-12T20:36:19.914Z,102164.53
2022-11-12T20:38:46.540Z,102180.03
2022-11-12T20:41:13.005Z,102179.59
2022-11-12T20:43:39.449Z,102172.81
2022-11-12T20:46:06.864Z,102181.22
2022-11-12T20:48:33.336Z,102173.59
2022-11-12T20:51:22.118Z,102172.50
2022-11-12T20:53:46.268Z,102165.97
2022-11-12T20:56:13.668Z,102170.66
2022-11-12T20:58:40.159Z,102168.53
2022-11-12T21:01:07.721Z,102173.22
2022-11-12T21:03:34.288Z,102168.31
2022-11-12T21:06:00.819Z,102163.13
2022-11-12T21:08:27.445Z,102167.53
2022-11-12T21:10:54.117Z,102168.44
2022-11-12T21:13:21.577Z,102171.47
2022-11-12T21:15:48.968Z,102168.59
2022-11-12T21:20:53.240Z,102164.53
2022-11-12T21:23:20.821Z,102162.22
2022-11-12T21:25:48.202Z,102163.94
2022-11-12T21:28:15.548Z,102166.44
2022-11-12T21:30:41.985Z,102173.72
2022-11-12T21:33:08.440Z,102180.31
2022-11-12T21:35:34.988Z,102174.44
2022-11-12T21:38:01.461Z,102182.94
2022-11-12T21:40:28.084Z,102170.44
2022-11-12T21:42:54.529Z,102175.69
2022-11-12T21:45:20.996Z,102177.03
2022-11-12T21:47:47.467Z,102176.53
2022-11-12T21:50:14.884Z,102176.97
2022-11-12T21:52:42.289Z,102175.72
2022-11-12T21:55:08.764Z,102178.97
2022-11-12T21:57:35.260Z,102178.97
2022-11-12T22:00:26.482Z,102180.84
2022-11-12T22:02:49.262Z,102178.00
2022-11-12T22:05:16.681Z,102178.34
2022-11-12T22:07:43.144Z,102174.78
2022-11-12T22:10:09.640Z,102180.28
2022-11-12T22:12:36.113Z,102181.06
2022-11-12T22:15:02.589Z,102175.84
2022-11-12T22:20:14.291Z,102177.34
2022-11-12T22:22:40.785Z,102180.91
2022-11-12T22:25:08.225Z,102191.16
2022-11-12T22:27:34.673Z,102178.38
2022-11-12T22:30:01.133Z,102178.81
2022-11-12T22:35:22.539Z,102173.53
2022-11-12T22:37:48.998Z,102169.59
2022-11-12T22:40:15.467Z,102175.81
2022-11-12T22:42:42.849Z,102181.09
2022-11-12T22:45:09.332Z,102175.09
2022-11-12T22:50:29.891Z,102172.66
2022-11-12T22:52:56.426Z,102180.59
2022-11-12T22:55:22.890Z,102177.38
2022-11-12T22:57:50.275Z,102178.16
2022-11-12T23:00:16.732Z,102175.66
2022-11-12T23:05:27.381Z,102173.59
2022-11-12T23:07:53.847Z,102168.75
2022-11-12T23:10:21.266Z,102168.81
2022-11-12T23:12:47.732Z,102171.59
2022-11-12T23:15:15.980Z,102164.44
2022-11-12T23:20:26.777Z,102170.66
2022-11-12T23:22:54.180Z,102173.09
2022-11-12T23:25:21.546Z,102169.78
2022-11-12T23:27:48.015Z,102173.78
2022-11-12T23:30:15.396Z,102163.09
2022-11-12T23:35:36.096Z,102174.91
2022-11-12T23:38:02.559Z,102172.84
2022-11-12T23:40:31.328Z,102173.19
2022-11-12T23:42:58.857Z,102174.78
2022-11-12T23:45:25.316Z,102161.63
2022-11-12T23:50:35.727Z,102175.19
2022-11-12T23:53:02.169Z,102169.34
2022-11-12T23:55:29.385Z,102173.13
2022-11-12T23:57:56.016Z,102167.13
